Time;durP1;ratioP1;P1;durP2;ratioP2;P2;SDS_P1;SDS_P2;PMS_P1;PMS_P2;Temp;Humidity;BMP_temperature;BMP_pressure;BME280_temperature;BME280_humidity;BME280_pressure;Samples;Min_cycle;Max_cycle;Signal;HPM_P1;HPM_P2
2021/06/02 00:02:00;;;;;;;3.28;2.70;;;16.30;71.40;;;;;;5086178;28;27416;-63
2021/06/02 00:04:46;;;;;;;3.75;2.75;;;16.30;71.20;;;;;;5085190;28;27548;-63
2021/06/02 00:07:30;;;;;;;3.80;2.38;;;16.20;71.70;;;;;;5086206;28;27853;-63
2021/06/02 00:10:16;;;;;;;3.67;2.38;;;16.20;71.40;;;;;;5071064;28;27416;-64
2021/06/02 00:13:01;;;;;;;3.83;3.47;;;16.10;71.70;;;;;;5085718;28;27409;-64
2021/06/02 00:15:48;;;;;;;3.60;2.50;;;16.10;71.60;;;;;;5086193;28;27489;-63
2021/06/02 00:18:32;;;;;;;3.20;2.47;;;16.10;72.10;;;;;;5085732;28;27856;-63
2021/06/02 00:21:17;;;;;;;4.03;2.70;;;16.00;71.50;;;;;;5099774;27;27418;-63
2021/06/02 00:24:01;;;;;;;2.70;2.40;;;15.90;71.80;;;;;;5084932;28;27478;-63
2021/06/02 00:26:46;;;;;;;3.08;2.50;;;15.90;71.20;;;;;;5085691;28;27388;-63
2021/06/02 00:29:32;;;;;;;2.97;2.33;;;15.90;72.20;;;;;;5081379;28;27473;-63
2021/06/02 00:32:16;;;;;;;3.88;2.47;;;15.90;71.60;;;;;;5085373;28;27404;-66
2021/06/02 00:35:05;;;;;;;3.70;2.42;;;15.80;71.80;;;;;;5099563;27;27458;-63
2021/06/02 00:37:49;;;;;;;3.08;2.55;;;15.70;71.80;;;;;;5084444;28;27427;-64
2021/06/02 00:40:36;;;;;;;2.50;2.30;;;15.70;71.50;;;;;;5099042;27;27450;-63
2021/06/02 00:43:20;;;;;;;3.65;2.33;;;15.70;71.60;;;;;;5084749;28;27395;-63
2021/06/02 00:46:05;;;;;;;2.42;2.20;;;15.60;71.70;;;;;;5082518;28;27361;-64
2021/06/02 00:48:50;;;;;;;4.07;2.22;;;15.60;71.90;;;;;;5085327;28;27351;-64
2021/06/02 00:51:34;;;;;;;2.65;2.40;;;15.50;72.10;;;;;;5085521;28;27387;-64
2021/06/02 00:54:18;;;;;;;3.53;2.50;;;15.50;71.80;;;;;;5085520;28;27473;-68
2021/06/02 00:57:16;;;;;;;2.60;2.40;;;15.40;72.00;;;;;;5084508;28;27483;-63
2021/06/02 01:00:08;;;;;;;3.03;2.70;;;15.40;71.70;;;;;;5084546;28;27378;-64
2021/06/02 01:02:53;;;;;;;2.88;2.38;;;15.30;72.10;;;;;;5067060;28;27412;-63
2021/06/02 01:05:38;;;;;;;4.20;2.75;;;15.30;72.30;;;;;;5085398;28;27424;-63
2021/06/02 01:08:22;;;;;;;3.08;2.42;;;15.30;72.10;;;;;;5085278;28;27419;-63
2021/06/02 01:11:06;;;;;;;2.80;2.47;;;15.20;72.30;;;;;;5084825;28;27478;-64
2021/06/02 01:13:51;;;;;;;3.55;2.42;;;15.20;72.30;;;;;;5083246;28;27487;-64
2021/06/02 01:16:37;;;;;;;5.20;2.40;;;15.20;72.10;;;;;;5084936;28;27493;-63
2021/06/02 01:19:22;;;;;;;3.40;2.38;;;15.10;72.30;;;;;;5066589;28;27452;-64
2021/06/02 01:22:06;;;;;;;3.60;2.50;;;15.10;72.20;;;;;;5080791;28;27435;-63
2021/06/02 01:24:51;;;;;;;4.93;2.63;;;15.00;72.40;;;;;;5085029;28;27872;-63
2021/06/02 01:27:35;;;;;;;4.57;2.35;;;15.00;72.30;;;;;;5069287;28;27499;-63
2021/06/02 01:30:21;;;;;;;5.10;2.70;;;15.00;72.00;;;;;;5085041;28;27424;-64
2021/06/02 01:33:28;;;;;;;4.60;2.58;;;14.90;72.20;;;;;;5084623;28;27402;-63
2021/06/02 01:36:13;;;;;;;3.55;2.78;;;14.90;72.50;;;;;;5084211;28;27460;-63
2021/06/02 01:39:33;;;;;;;2.65;2.13;;;14.80;72.30;;;;;;5084684;28;27547;-63
2021/06/02 01:42:23;;;;;;;5.35;2.58;;;14.80;72.80;;;;;;5068353;28;27357;-63
2021/06/02 01:45:42;;;;;;;3.30;2.90;;;14.70;72.60;;;;;;5069000;28;27461;-63
2021/06/02 01:48:30;;;;;;;3.03;2.72;;;14.70;72.50;;;;;;5082794;28;27813;-63
2021/06/02 01:51:38;;;;;;;6.70;3.15;;;14.70;72.20;;;;;;5067904;28;27611;-63
2021/06/02 01:54:25;;;;;;;5.38;2.88;;;14.70;72.70;;;;;;5082726;28;27467;-64
2021/06/02 01:57:19;;;;;;;4.65;2.80;;;14.70;72.40;;;;;;5082757;28;27457;-63
2021/06/02 02:00:29;;;;;;;3.05;2.75;;;14.60;72.50;;;;;;5082820;28;27957;-63
2021/06/02 02:03:20;;;;;;;4.00;3.22;;;14.60;72.10;;;;;;5066711;28;27399;-63
2021/06/02 02:06:41;;;;;;;4.55;2.83;;;14.60;72.50;;;;;;5082765;28;27488;-63
2021/06/02 02:10:03;;;;;;;3.10;2.70;;;14.50;72.60;;;;;;5080539;28;27495;-63
2021/06/02 02:13:08;;;;;;;4.38;3.40;;;14.50;72.70;;;;;;5081681;28;27483;-63
2021/06/02 02:16:14;;;;;;;2.65;2.45;;;14.40;72.50;;;;;;5083277;28;27446;-63
2021/06/02 02:19:13;;;;;;;3.08;2.60;;;14.40;72.40;;;;;;5084034;28;27375;-63
2021/06/02 02:22:03;;;;;;;5.55;2.53;;;14.40;72.40;;;;;;5083936;28;27411;-63
2021/06/02 02:25:07;;;;;;;4.10;2.55;;;14.30;72.30;;;;;;5084031;28;27332;-63
2021/06/02 02:28:23;;;;;;;5.68;2.30;;;14.30;72.70;;;;;;5082312;28;27125;-62
2021/06/02 02:31:20;;;;;;;6.03;2.92;;;14.20;72.60;;;;;;5084181;28;27399;-63
2021/06/02 02:34:06;;;;;;;4.63;3.20;;;14.20;72.80;;;;;;5083173;28;27343;-63
2021/06/02 02:36:54;;;;;;;7.43;3.05;;;14.10;72.80;;;;;;5082771;28;27451;-63
2021/06/02 02:40:05;;;;;;;3.63;2.47;;;14.20;72.60;;;;;;5097658;27;27417;-63
2021/06/02 02:43:06;;;;;;;2.70;2.45;;;14.10;72.80;;;;;;5079755;28;27466;-63
2021/06/02 02:45:57;;;;;;;3.17;2.60;;;14.10;72.80;;;;;;5082699;28;27347;-62
2021/06/02 02:48:55;;;;;;;3.13;2.55;;;14.10;72.90;;;;;;5083309;28;27442;-63
2021/06/02 02:52:01;;;;;;;3.95;2.78;;;14.10;72.90;;;;;;5082247;28;27408;-63
2021/06/02 02:54:57;;;;;;;3.10;2.70;;;14.00;72.70;;;;;;5083590;28;27317;-62
2021/06/02 02:58:03;;;;;;;3.13;2.50;;;13.90;72.50;;;;;;5082589;28;27431;-63
2021/06/02 03:01:04;;;;;;;2.90;2.20;;;13.90;72.20;;;;;;5083572;28;27329;-63
2021/06/02 03:04:09;;;;;;;3.72;2.03;;;13.90;72.90;;;;;;5082304;28;27489;-63
2021/06/02 03:07:01;;;;;;;3.45;2.63;;;13.80;72.40;;;;;;5082431;28;27427;-63
2021/06/02 03:10:19;;;;;;;4.03;2.40;;;13.70;73.20;;;;;;5083047;28;27435;-63
2021/06/02 03:13:10;;;;;;;3.55;2.90;;;13.70;73.00;;;;;;5082516;28;27571;-62
2021/06/02 03:15:59;;;;;;;3.17;2.63;;;13.70;72.80;;;;;;5083284;28;27613;-62
2021/06/02 03:18:51;;;;;;;2.90;2.70;;;13.70;72.70;;;;;;5082158;28;27490;-63
2021/06/02 03:22:11;;;;;;;5.78;2.58;;;13.70;73.30;;;;;;5082979;28;27408;-62
2021/06/02 03:25:04;;;;;;;2.63;2.33;;;13.60;73.20;;;;;;5080884;28;27849;-63
2021/06/02 03:28:14;;;;;;;3.13;2.83;;;13.60;73.50;;;;;;5080621;28;27537;-62
2021/06/02 03:31:17;;;;;;;4.13;2.50;;;13.50;73.00;;;;;;5080737;28;27452;-62
2021/06/02 03:34:20;;;;;;;2.65;2.42;;;13.50;73.00;;;;;;5067905;28;27361;-62
2021/06/02 03:37:06;;;;;;;2.58;2.00;;;13.50;73.00;;;;;;5063196;28;27436;-63
2021/06/02 03:40:28;;;;;;;2.90;2.47;;;13.50;73.10;;;;;;5066648;28;27572;-63
2021/06/02 03:43:39;;;;;;;6.50;2.28;;;13.40;73.30;;;;;;5081207;28;26988;-63
2021/06/02 03:46:34;;;;;;;3.33;2.80;;;13.40;73.20;;;;;;5067008;28;27368;-63
2021/06/02 03:49:39;;;;;;;3.25;2.60;;;13.40;73.40;;;;;;5081436;28;27394;-63
2021/06/02 03:52:46;;;;;;;2.92;2.55;;;13.30;73.30;;;;;;5081301;28;27411;-63
2021/06/02 03:56:10;;;;;;;5.03;2.80;;;13.30;73.50;;;;;;5081105;28;27453;-63
2021/06/02 03:59:09;;;;;;;3.08;2.45;;;13.30;73.30;;;;;;5072575;28;27519;-63
2021/06/02 04:01:55;;;;;;;5.68;3.00;;;13.30;74.00;;;;;;5082423;28;28047;-63
2021/06/02 04:05:02;;;;;;;11.98;3.03;;;13.30;73.80;;;;;;5082737;28;27380;-62
2021/06/02 04:07:55;;;;;;;8.48;2.75;;;13.20;74.50;;;;;;5082778;28;27427;-63
2021/06/02 04:11:02;;;;;;;5.18;2.90;;;13.20;74.00;;;;;;5064701;28;27353;-63
2021/06/02 04:13:57;;;;;;;4.60;2.80;;;13.20;74.00;;;;;;5081432;28;27387;-64
2021/06/02 04:16:41;;;;;;;6.88;2.30;;;13.20;74.80;;;;;;5082240;28;27285;-63
2021/06/02 04:19:28;;;;;;;4.03;2.92;;;13.20;74.40;;;;;;5082224;28;27333;-63
2021/06/02 04:22:12;;;;;;;4.35;2.58;;;13.10;74.30;;;;;;5082647;28;27348;-63
2021/06/02 04:24:56;;;;;;;8.23;2.72;;;13.10;74.60;;;;;;5095089;27;27395;-63
2021/06/02 04:27:41;;;;;;;3.90;3.10;;;13.10;74.50;;;;;;5071780;27;27392;-67
2021/06/02 04:30:25;;;;;;;5.25;2.60;;;13.10;74.70;;;;;;5081916;28;27383;-64
2021/06/02 04:33:10;;;;;;;3.17;2.65;;;13.20;74.60;;;;;;5064122;28;27387;-63
2021/06/02 04:35:54;;;;;;;3.17;2.80;;;13.20;75.00;;;;;;5098599;27;27908;-63
2021/06/02 04:38:39;;;;;;;6.30;3.05;;;13.20;75.10;;;;;;5099276;27;27464;-64
2021/06/02 04:41:25;;;;;;;3.53;2.42;;;13.20;75.40;;;;;;5085787;28;27420;-64
2021/06/02 04:44:12;;;;;;;5.63;2.83;;;13.10;75.20;;;;;;5085530;28;27392;-63
2021/06/02 04:46:56;;;;;;;4.47;3.00;;;13.10;75.70;;;;;;5084531;28;27992;-63
2021/06/02 04:50:02;;;;;;;6.65;3.10;;;13.10;75.60;;;;;;5084906;28;27355;-63
2021/06/02 04:53:20;;;;;;;3.20;2.50;;;13.20;75.50;;;;;;5085236;28;27620;-63
2021/06/02 04:56:10;;;;;;;4.82;2.80;;;13.20;75.50;;;;;;5080870;28;27329;-63
2021/06/02 04:59:24;;;;;;;10.32;3.38;;;13.20;75.90;;;;;;5081037;28;27965;-63
2021/06/02 05:02:33;;;;;;;7.00;3.17;;;13.20;75.70;;;;;;5084230;28;27573;-66
2021/06/02 05:05:55;;;;;;;6.18;3.00;;;13.20;75.90;;;;;;5085439;28;27348;-63
2021/06/02 05:09:01;;;;;;;9.27;3.20;;;13.30;76.20;;;;;;5084810;28;27445;-63
2021/06/02 05:12:03;;;;;;;7.45;4.07;;;13.30;76.20;;;;;;5085321;28;27325;-62
2021/06/02 05:15:14;;;;;;;7.22;3.42;;;13.30;76.50;;;;;;5081216;28;27441;-63
2021/06/02 05:18:17;;;;;;;4.75;3.30;;;13.30;76.60;;;;;;5084647;28;27405;-63
2021/06/02 05:24:39;;;;;;;5.85;3.55;;;13.40;77.10;;;;;;5084953;28;27951;-64
2021/06/02 05:27:40;;;;;;;6.28;3.70;;;13.40;77.40;;;;;;5084739;28;27371;-63
2021/06/02 05:30:56;;;;;;;5.18;3.72;;;13.50;77.30;;;;;;5083475;28;27428;-64
2021/06/02 05:34:09;;;;;;;5.90;3.90;;;13.50;77.20;;;;;;5084274;28;27368;-63
2021/06/02 05:37:14;;;;;;;6.22;3.72;;;13.50;76.90;;;;;;5084137;28;27463;-63
2021/06/02 05:40:55;;;;;;;5.43;3.60;;;13.60;77.20;;;;;;5084681;28;27462;-67
2021/06/02 05:44:16;;;;;;;4.60;3.67;;;13.60;77.30;;;;;;5051962;28;27642;-67
2021/06/02 05:47:17;;;;;;;6.53;4.30;;;13.70;77.60;;;;;;5083815;28;27627;-63
2021/06/02 05:50:23;;;;;;;5.95;4.00;;;13.80;77.20;;;;;;5083698;28;27480;-63
2021/06/02 05:53:31;;;;;;;11.57;4.78;;;14.00;77.50;;;;;;5084452;28;27473;-64
2021/06/02 05:56:34;;;;;;;4.70;4.00;;;14.20;76.00;;;;;;5084094;28;27363;-64
2021/06/02 05:59:41;;;;;;;5.05;4.47;;;14.50;73.90;;;;;;5065866;28;27468;-64
2021/06/02 06:02:50;;;;;;;4.85;4.32;;;14.70;73.80;;;;;;5084329;28;27849;-64
2021/06/02 06:05:44;;;;;;;5.10;4.05;;;15.00;74.40;;;;;;5084293;28;27462;-68
2021/06/02 06:09:09;;;;;;;6.00;4.40;;;15.20;75.50;;;;;;5080108;28;27357;-64
2021/06/02 06:12:24;;;;;;;6.05;4.43;;;15.50;76.50;;;;;;5084190;28;27375;-64
2021/06/02 06:15:17;;;;;;;7.13;4.70;;;15.70;74.90;;;;;;5083661;28;27378;-65
2021/06/02 06:18:24;;;;;;;7.10;4.47;;;15.90;73.50;;;;;;5065341;28;27431;-65
2021/06/02 06:21:26;;;;;;;6.07;4.00;;;16.10;72.50;;;;;;5084039;28;27422;-64
2021/06/02 06:24:13;;;;;;;5.53;3.80;;;16.30;72.80;;;;;;5083841;28;27347;-68
2021/06/02 06:27:16;;;;;;;5.75;3.78;;;16.50;73.10;;;;;;5094030;27;27400;-65
2021/06/02 06:30:13;;;;;;;4.72;4.22;;;16.70;73.50;;;;;;5084051;28;27382;-65
2021/06/02 06:32:59;;;;;;;6.47;4.03;;;16.90;74.30;;;;;;5083680;28;27303;-64
2021/06/02 06:35:44;;;;;;;6.45;3.72;;;17.10;73.30;;;;;;5083401;28;27336;-64
2021/06/02 06:38:52;;;;;;;4.70;3.83;;;17.30;73.70;;;;;;5083188;28;27399;-65
2021/06/02 06:41:37;;;;;;;5.35;3.88;;;17.50;75.00;;;;;;5083313;28;27476;-64
2021/06/02 06:44:22;;;;;;;5.18;4.28;;;17.70;74.60;;;;;;5083300;28;27530;-64
2021/06/02 06:47:07;;;;;;;4.82;3.88;;;17.90;76.40;;;;;;5097596;27;27465;-64
2021/06/02 06:49:54;;;;;;;4.10;3.63;;;18.10;76.90;;;;;;5084351;28;27414;-65
2021/06/02 06:52:42;;;;;;;3.80;3.40;;;18.20;75.40;;;;;;5084155;28;27466;-65
2021/06/02 06:55:26;;;;;;;7.72;3.72;;;18.50;75.20;;;;;;5084081;28;27344;-66
2021/06/02 06:58:10;;;;;;;4.38;3.60;;;18.60;74.80;;;;;;5083196;28;27446;-70
2021/06/02 07:00:55;;;;;;;6.32;3.95;;;18.80;73.50;;;;;;5082998;28;27849;-66
2021/06/02 07:03:40;;;;;;;4.45;4.05;;;19.00;74.90;;;;;;5097554;27;27428;-66
2021/06/02 07:06:25;;;;;;;6.85;3.83;;;19.20;75.70;;;;;;5083899;28;27407;-66
2021/06/02 07:09:09;;;;;;;5.97;4.13;;;19.30;74.90;;;;;;5097745;27;27415;-66
2021/06/02 07:11:55;;;;;;;4.60;3.97;;;19.50;75.70;;;;;;5084609;28;27411;-66
2021/06/02 07:14:40;;;;;;;7.20;4.20;;;19.70;75.20;;;;;;5084604;28;27402;-67
2021/06/02 07:17:24;;;;;;;8.23;5.18;;;19.90;73.10;;;;;;5084414;28;27460;-67
2021/06/02 07:20:13;;;;;;;6.55;3.75;;;20.00;71.70;;;;;;5084202;28;27404;-67
2021/06/02 07:22:57;;;;;;;4.70;3.78;;;20.20;72.40;;;;;;5084507;28;27313;-67
2021/06/02 07:25:42;;;;;;;4.40;3.80;;;20.40;71.00;;;;;;5083652;28;27428;-67
2021/06/02 07:28:37;;;;;;;3.40;3.05;;;20.60;73.10;;;;;;5082716;28;27400;-67
2021/06/02 07:31:22;;;;;;;4.63;3.10;;;20.70;74.70;;;;;;5080104;28;27418;-67
2021/06/02 07:34:07;;;;;;;6.85;3.67;;;20.90;72.80;;;;;;5084004;28;27406;-67
2021/06/02 07:36:51;;;;;;;4.15;3.28;;;21.10;76.40;;;;;;5080158;28;27375;-67
2021/06/02 07:39:36;;;;;;;5.05;3.50;;;21.30;73.80;;;;;;5084071;28;27360;-67
2021/06/02 07:42:20;;;;;;;8.77;3.50;;;21.50;71.40;;;;;;5083934;28;27346;-67
2021/06/02 07:45:05;;;;;;;5.60;3.58;;;21.70;74.00;;;;;;5084154;28;27376;-67
2021/06/02 07:47:50;;;;;;;4.72;3.35;;;21.90;76.50;;;;;;5083891;28;27371;-67
2021/06/02 07:50:35;;;;;;;3.30;2.78;;;22.10;72.20;;;;;;5084202;28;27498;-68
2021/06/02 07:53:19;;;;;;;3.88;3.05;;;22.30;69.30;;;;;;5084095;28;27481;-68
2021/06/02 07:56:04;;;;;;;6.15;2.90;;;22.50;69.70;;;;;;5084004;28;27880;-68
2021/06/02 07:58:49;;;;;;;2.65;2.10;;;22.70;68.00;;;;;;5079988;28;27428;-68
2021/06/02 08:01:33;;;;;;;3.35;2.10;;;22.90;64.30;;;;;;5084068;28;27399;-68
2021/06/02 08:04:18;;;;;;;2.97;2.13;;;23.10;63.90;;;;;;5083670;28;27392;-68
2021/06/02 08:07:05;;;;;;;4.22;2.00;;;23.20;63.60;;;;;;5083591;28;27467;-68
2021/06/02 08:09:50;;;;;;;5.35;2.30;;;23.40;64.00;;;;;;5085354;28;27352;-68
2021/06/02 08:12:35;;;;;;;3.40;2.42;;;23.70;66.30;;;;;;5087192;28;27356;-69
2021/06/02 08:15:20;;;;;;;6.38;2.40;;;23.80;66.60;;;;;;5087613;28;27404;-68
2021/06/02 08:18:05;;;;;;;4.78;2.60;;;24.10;68.90;;;;;;5087022;28;27458;-69
2021/06/02 08:20:50;;;;;;;4.70;2.58;;;24.30;64.60;;;;;;5086985;28;27547;-68
2021/06/02 08:23:35;;;;;;;5.20;2.22;;;24.50;66.10;;;;;;5087362;28;27466;-68
2021/06/02 08:26:19;;;;;;;7.55;2.72;;;24.60;46.50;;;;;;5087068;28;27466;-70
2021/06/02 08:29:04;;;;;;;3.35;2.38;;;24.70;48.80;;;;;;5086602;28;27432;-70
2021/06/02 08:31:48;;;;;;;6.30;2.42;;;25.00;53.50;;;;;;5086737;28;27477;-70
2021/06/02 08:34:33;;;;;;;3.13;2.80;;;25.20;58.10;;;;;;5087174;28;27489;-70
2021/06/02 08:37:18;;;;;;;7.35;2.00;;;25.30;57.00;;;;;;5085864;28;27471;-71
2021/06/02 08:40:03;;;;;;;2.55;2.20;;;25.50;57.10;;;;;;5086672;28;27417;-70
2021/06/02 08:42:47;;;;;;;3.67;2.10;;;25.60;57.20;;;;;;5086565;28;27528;-71
2021/06/02 08:45:31;;;;;;;3.63;2.33;;;25.70;57.90;;;;;;5082965;28;26998;-70
2021/06/02 08:48:16;;;;;;;4.63;2.35;;;25.80;57.10;;;;;;5086911;28;27469;-70
2021/06/02 08:51:00;;;;;;;3.53;2.17;;;25.90;57.00;;;;;;5086946;28;27419;-71
2021/06/02 08:53:48;;;;;;;4.28;2.10;;;26.10;55.80;;;;;;5087077;28;27704;-70
2021/06/02 08:56:33;;;;;;;1.92;1.83;;;26.20;54.70;;;;;;5086776;28;27450;-70
2021/06/02 08:59:18;;;;;;;4.25;2.22;;;26.30;55.20;;;;;;5085581;28;27466;-70
2021/06/02 09:02:04;;;;;;;3.53;2.10;;;26.40;55.50;;;;;;5086619;28;27475;-70
2021/06/02 09:04:48;;;;;;;4.15;1.95;;;26.60;56.10;;;;;;5086260;28;27514;-71
2021/06/02 09:07:33;;;;;;;2.03;1.83;;;26.70;58.40;;;;;;5086694;28;27411;-71
2021/06/02 09:10:18;;;;;;;2.90;1.92;;;26.90;57.30;;;;;;5086637;28;27411;-73
2021/06/02 09:13:02;;;;;;;5.30;1.98;;;27.10;57.90;;;;;;5086313;28;27412;-72
2021/06/02 09:15:49;;;;;;;7.50;2.17;;;27.20;55.50;;;;;;5085657;28;27489;-70
2021/06/02 09:18:33;;;;;;;3.92;1.98;;;27.30;55.00;;;;;;5086109;28;27450;-69
2021/06/02 09:21:18;;;;;;;6.28;1.92;;;27.40;53.80;;;;;;5085995;28;27466;-72
2021/06/02 09:24:02;;;;;;;3.40;2.30;;;27.50;53.90;;;;;;5086059;28;27419;-70
2021/06/02 09:26:47;;;;;;;4.50;2.50;;;27.60;54.10;;;;;;5086009;28;27392;-69
2021/06/02 09:29:46;;;;;;;3.20;1.80;;;27.70;53.30;;;;;;5085359;28;27451;-69
2021/06/02 09:32:36;;;;;;;4.25;2.38;;;27.80;55.90;;;;;;5085697;28;27325;-69
2021/06/02 09:35:21;;;;;;;4.70;2.33;;;27.90;56.60;;;;;;5100149;27;27433;-68
2021/06/02 09:38:06;;;;;;;3.40;2.10;;;28.10;56.90;;;;;;5085850;28;27518;-68
2021/06/02 09:40:55;;;;;;;4.88;2.25;;;28.10;56.50;;;;;;5085869;28;27435;-68
2021/06/02 09:43:40;;;;;;;7.28;2.53;;;28.20;56.90;;;;;;5085117;28;27485;-69
2021/06/02 09:46:24;;;;;;;3.28;1.95;;;28.40;62.00;;;;;;5067795;28;27424;-69
2021/06/02 09:49:11;;;;;;;3.42;1.90;;;28.50;62.80;;;;;;5081854;28;27371;-68
2021/06/02 09:51:56;;;;;;;3.08;2.05;;;28.60;59.30;;;;;;5086088;28;27443;-68
2021/06/02 09:54:40;;;;;;;3.08;1.90;;;28.80;59.50;;;;;;5084363;28;27353;-70
2021/06/02 09:57:24;;;;;;;2.42;2.00;;;28.90;56.30;;;;;;5084555;28;27418;-68
2021/06/02 10:00:10;;;;;;;4.10;1.92;;;28.90;60.00;;;;;;5085371;28;27458;-68
2021/06/02 10:02:59;;;;;;;2.90;2.10;;;29.00;56.00;;;;;;5085738;28;27327;-68
2021/06/02 10:05:48;;;;;;;3.55;1.77;;;29.00;54.00;;;;;;5085411;28;27332;-69
2021/06/02 10:08:34;;;;;;;5.53;2.03;;;29.00;53.40;;;;;;5085284;28;27404;-68
2021/06/02 10:11:27;;;;;;;2.85;2.10;;;29.00;52.90;;;;;;5085561;28;27407;-69
2021/06/02 10:14:11;;;;;;;3.58;1.80;;;29.10;58.90;;;;;;5081568;28;27464;-70
2021/06/02 10:16:55;;;;;;;2.67;1.88;;;29.10;59.80;;;;;;5085068;28;27462;-70
2021/06/02 10:19:43;;;;;;;2.78;1.73;;;29.20;55.00;;;;;;5085082;28;27536;-70
2021/06/02 10:22:29;;;;;;;5.18;2.20;;;29.20;55.30;;;;;;5082054;28;27429;-70
2021/06/02 10:25:14;;;;;;;6.70;2.10;;;29.30;58.20;;;;;;5085374;28;27450;-70
2021/06/02 10:27:58;;;;;;;2.63;1.80;;;29.40;57.60;;;;;;5084278;28;27336;-70
2021/06/02 10:30:43;;;;;;;6.38;1.73;;;29.40;54.90;;;;;;5085206;28;27464;-69
2021/06/02 10:33:30;;;;;;;1.95;1.60;;;29.40;54.60;;;;;;5080028;28;27632;-69
2021/06/02 10:36:15;;;;;;;5.35;1.85;;;29.50;55.00;;;;;;5084992;28;27420;-68
2021/06/02 10:38:59;;;;;;;5.75;2.55;;;29.40;35.90;;;;;;5084377;28;27487;-68
2021/06/02 10:41:50;;;;;;;4.25;1.95;;;29.20;35.30;;;;;;5085073;28;27468;-68
2021/06/02 10:44:37;;;;;;;2.70;1.60;;;29.20;40.80;;;;;;5080947;28;27401;-68
2021/06/02 10:47:23;;;;;;;3.05;2.00;;;29.30;45.30;;;;;;5084653;28;27479;-68
2021/06/02 10:50:30;;;;;;;2.10;1.77;;;29.40;48.70;;;;;;5084238;28;27414;-67
2021/06/02 10:53:18;;;;;;;2.67;1.50;;;29.50;51.60;;;;;;5080869;28;27853;-67
2021/06/02 10:56:02;;;;;;;4.28;2.38;;;29.50;57.70;;;;;;5084839;28;27419;-67
2021/06/02 10:58:47;;;;;;;3.22;1.80;;;29.70;58.30;;;;;;5084823;28;27364;-67
2021/06/02 11:01:32;;;;;;;2.15;1.90;;;29.80;61.90;;;;;;5098555;27;27377;-68
2021/06/02 11:04:17;;;;;;;2.15;1.95;;;29.90;60.50;;;;;;5084828;28;27336;-68
2021/06/02 11:07:20;;;;;;;2.90;1.88;;;30.00;58.90;;;;;;5084307;28;27336;-68
2021/06/02 11:10:08;;;;;;;3.35;1.90;;;30.10;60.30;;;;;;5084419;28;27462;-68
2021/06/02 11:12:56;;;;;;;5.53;1.83;;;30.20;58.60;;;;;;5084671;28;27344;-68
2021/06/02 11:15:44;;;;;;;4.80;2.00;;;30.20;57.10;;;;;;5083969;28;27718;-68
2021/06/02 11:18:29;;;;;;;4.32;2.03;;;30.20;60.70;;;;;;5084241;28;27611;-68
2021/06/02 11:21:13;;;;;;;2.00;1.80;;;30.30;64.00;;;;;;5083835;28;27485;-68
2021/06/02 11:23:58;;;;;;;2.83;1.75;;;30.40;59.20;;;;;;5084483;28;27461;-68
2021/06/02 11:26:42;;;;;;;4.50;1.80;;;30.50;59.90;;;;;;5084065;28;27462;-69
2021/06/02 11:29:26;;;;;;;2.20;1.70;;;30.60;62.00;;;;;;5082723;28;27438;-68
2021/06/02 11:32:46;;;;;;;3.38;1.90;;;30.60;60.30;;;;;;5083743;28;27557;-73
2021/06/02 11:35:53;;;;;;;3.85;1.70;;;30.60;62.10;;;;;;5080850;28;27391;-68
2021/06/02 11:38:39;;;;;;;1.95;1.85;;;30.70;59.50;;;;;;5084029;28;27491;-68
2021/06/02 11:41:23;;;;;;;3.92;1.63;;;30.70;58.30;;;;;;5084271;28;27383;-68
2021/06/02 11:44:08;;;;;;;4.63;2.00;;;30.60;60.00;;;;;;5085804;28;27572;-67
2021/06/02 11:46:52;;;;;;;2.85;2.22;;;30.60;63.70;;;;;;5087025;28;27351;-68
2021/06/02 11:49:37;;;;;;;2.33;1.70;;;30.70;63.90;;;;;;5087823;28;27414;-68
2021/06/02 11:52:21;;;;;;;3.80;1.60;;;30.70;58.10;;;;;;5087761;28;27379;-68
2021/06/02 11:55:10;;;;;;;2.92;1.95;;;30.80;54.20;;;;;;5087520;28;27367;-67
2021/06/02 11:57:55;;;;;;;2.13;1.75;;;30.70;53.10;;;;;;5087439;28;27379;-69
2021/06/02 12:00:40;;;;;;;1.80;1.58;;;30.70;62.90;;;;;;5087700;28;27329;-68
2021/06/02 12:03:25;;;;;;;3.13;2.22;;;30.70;59.30;;;;;;5087372;28;27409;-70
2021/06/02 12:06:10;;;;;;;4.40;1.77;;;30.80;57.80;;;;;;5087298;28;27371;-68
2021/06/02 12:08:55;;;;;;;3.33;2.13;;;30.80;55.30;;;;;;5087056;28;27317;-68
2021/06/02 12:11:40;;;;;;;6.05;2.15;;;30.70;57.40;;;;;;5087457;28;27394;-68
2021/06/02 12:14:25;;;;;;;4.25;1.65;;;30.70;56.00;;;;;;5087387;28;27535;-68
2021/06/02 12:17:10;;;;;;;6.80;1.95;;;30.60;59.10;;;;;;5087369;28;27341;-69
2021/06/02 12:19:55;;;;;;;4.78;1.90;;;30.60;62.80;;;;;;5087143;28;27341;-69
2021/06/02 12:22:40;;;;;;;3.38;1.75;;;30.60;57.60;;;;;;5087258;28;27947;-69
2021/06/02 12:25:25;;;;;;;4.57;1.70;;;30.50;58.80;;;;;;5086920;28;27390;-68
2021/06/02 12:28:10;;;;;;;2.50;1.60;;;30.40;56.60;;;;;;5086035;28;27383;-73
2021/06/02 12:30:54;;;;;;;2.35;1.80;;;30.40;62.20;;;;;;5087127;28;27339;-69
2021/06/02 12:33:39;;;;;;;2.13;1.88;;;30.40;64.10;;;;;;5087030;28;27412;-69
2021/06/02 12:36:23;;;;;;;2.05;1.55;;;30.40;66.80;;;;;;5100555;27;27518;-69
2021/06/02 12:39:10;;;;;;;2.08;1.83;;;30.40;66.80;;;;;;5085875;28;27398;-69
2021/06/02 12:41:56;;;;;;;1.80;1.63;;;30.40;63.10;;;;;;5087036;28;27340;-69
2021/06/02 12:44:40;;;;;;;1.98;1.63;;;30.40;64.00;;;;;;5086903;28;27483;-69
2021/06/02 12:47:25;;;;;;;1.58;1.48;;;30.40;63.20;;;;;;5086397;28;27554;-69
2021/06/02 12:50:10;;;;;;;2.17;1.58;;;30.40;61.90;;;;;;5086579;28;27432;-69
2021/06/02 12:52:54;;;;;;;2.75;1.60;;;30.40;59.80;;;;;;5086405;28;27381;-69
2021/06/02 12:55:43;;;;;;;1.42;1.30;;;30.30;62.00;;;;;;5085867;28;27871;-70
2021/06/02 12:58:31;;;;;;;2.70;1.77;;;30.30;57.80;;;;;;5086633;28;27428;-68
2021/06/02 13:01:15;;;;;;;2.53;1.65;;;30.20;63.90;;;;;;5086768;28;27407;-69
2021/06/02 13:04:03;;;;;;;2.17;1.60;;;30.30;65.80;;;;;;5099619;27;27441;-69
2021/06/02 13:06:52;;;;;;;3.20;1.80;;;30.40;57.80;;;;;;5086399;28;27950;-69
2021/06/02 13:09:37;;;;;;;2.28;1.45;;;30.50;59.90;;;;;;5086173;28;27493;-69
2021/06/02 13:12:22;;;;;;;3.58;1.80;;;30.60;56.70;;;;;;5085744;28;27355;-69
2021/06/02 13:15:29;;;;;;;3.60;2.33;;;30.60;58.50;;;;;;5085454;28;27438;-70
2021/06/02 13:18:21;;;;;;;1.48;1.38;;;30.60;63.30;;;;;;5085376;28;27478;-69
2021/06/02 13:21:31;;;;;;;2.42;2.03;;;30.70;58.50;;;;;;5086510;28;27589;-70
2021/06/02 13:24:17;;;;;;;1.60;1.50;;;30.60;60.00;;;;;;5086058;28;27376;-70
2021/06/02 13:27:02;;;;;;;2.72;1.50;;;30.50;55.80;;;;;;5085919;28;27411;-69
2021/06/02 13:30:00;;;;;;;2.08;1.30;;;30.30;56.20;;;;;;5085168;28;27450;-70
2021/06/02 13:32:57;;;;;;;3.92;1.73;;;30.20;57.80;;;;;;5085547;28;27336;-70
2021/06/02 13:35:42;;;;;;;7.82;1.80;;;30.00;60.80;;;;;;5086076;28;27524;-70
2021/06/02 13:38:27;;;;;;;14.18;2.35;;;30.00;63.60;;;;;;5086080;28;26918;-70
2021/06/02 13:41:24;;;;;;;5.70;1.92;;;30.00;60.50;;;;;;5085687;28;27514;-69
2021/06/02 13:44:20;;;;;;;8.57;2.25;;;30.00;58.60;;;;;;5085848;28;27466;-70
2021/06/02 13:47:04;;;;;;;10.18;2.03;;;30.00;59.70;;;;;;5085522;28;27454;-69
2021/06/02 13:49:49;;;;;;;9.10;1.98;;;29.90;53.20;;;;;;5085849;28;27469;-70
2021/06/02 13:52:33;;;;;;;3.50;1.67;;;29.90;59.80;;;;;;5085858;28;27452;-69
2021/06/02 13:55:18;;;;;;;3.67;1.90;;;29.90;59.60;;;;;;5113627;27;27448;-72
2021/06/02 13:58:12;;;;;;;5.30;1.92;;;29.90;61.90;;;;;;5085297;28;27449;-69
2021/06/02 14:00:57;;;;;;;2.75;1.70;;;29.90;61.00;;;;;;5084883;28;27511;-69
2021/06/02 14:03:41;;;;;;;2.42;1.80;;;29.80;53.80;;;;;;5085589;28;27466;-70
2021/06/02 14:06:25;;;;;;;3.25;1.60;;;29.60;49.40;;;;;;5084662;28;27436;-69
2021/06/02 14:09:10;;;;;;;2.30;1.60;;;29.50;52.50;;;;;;5085558;28;27380;-69
2021/06/02 14:11:55;;;;;;;1.80;1.70;;;29.40;56.90;;;;;;5085642;28;27363;-69
2021/06/02 14:14:39;;;;;;;5.00;1.80;;;29.40;56.90;;;;;;5084787;28;27386;-70
2021/06/02 14:17:24;;;;;;;4.70;1.65;;;29.40;60.90;;;;;;5070362;28;27407;-69
2021/06/02 14:20:09;;;;;;;4.50;1.80;;;29.50;59.90;;;;;;5085586;28;27405;-70
2021/06/02 14:22:53;;;;;;;2.20;2.00;;;29.50;61.10;;;;;;5085231;28;27343;-69
2021/06/02 14:25:38;;;;;;;3.85;1.52;;;29.50;58.20;;;;;;5084997;28;27333;-69
2021/06/02 14:28:23;;;;;;;3.67;2.20;;;29.60;56.30;;;;;;5084116;28;27337;-69
2021/06/02 14:31:07;;;;;;;3.38;1.80;;;29.50;52.20;;;;;;5085167;28;27367;-70
2021/06/02 14:33:52;;;;;;;2.47;1.83;;;29.40;52.00;;;;;;5085015;28;27383;-73
2021/06/02 14:36:36;;;;;;;2.95;1.70;;;29.40;52.00;;;;;;5085203;28;27368;-69
2021/06/02 14:39:21;;;;;;;3.95;1.73;;;29.30;52.90;;;;;;5081211;28;27340;-70
2021/06/02 14:42:05;;;;;;;1.75;1.65;;;29.10;49.90;;;;;;5084828;28;27474;-70
2021/06/02 14:44:50;;;;;;;5.25;1.90;;;29.00;48.60;;;;;;5085167;28;27456;-69
2021/06/02 14:47:35;;;;;;;3.25;1.77;;;28.80;47.20;;;;;;5080642;28;27857;-70
2021/06/02 14:50:19;;;;;;;5.75;2.25;;;28.70;50.60;;;;;;5084752;28;27427;-71
2021/06/02 14:53:05;;;;;;;5.15;2.00;;;28.50;51.00;;;;;;5113058;27;27443;-70